Airfield :
LOGIN :

Register | Disclaimer

   EN    FR    IT 

 










Legend :    VFR   Marginal VFR   IFR   Intensive IFR   Very Intensive IFR
Visi :
Ceiling :
>= 8 km
>= 3000ft
5 to 8 km
1000 to 3000 ft
1500m to 5 km
500 to 1000 ft
800 to 1500m
200 to 500 ft
< 800m
< 200 ft
Symbols :   Thunderstorms  Fog  Heavy snow  Heavy precipitations  Wind > 20 kt
SIGMETs :     Misc.  Thunderstorms  Icing  Turbulence  Mountain Waves  Volcanic Ashes






- Airport Elevation : 1363 ft


ETIC - Grafenwohr Army Air Field

CURRENT METAR :
  • 281226Z AUTO 24011G21KT 9999 SCT020 SCT025 BKN034 04/04 A2943 RMK AO2 SLP981 $

EXPIRED METARs :
  • 281156Z AUTO 24010G23KT 9999 BKN022 BKN050 BKN065 OVC095 04/04 A2942 RMK AO2 PK WND 24039/08 RAE28 CIG 022V100 SLP977 P0003 60006 70023 T00370036 10057 20037 55003 $
  • 281128Z AUTO 24009G24KT 9999 FEW013 SCT020 SCT031 BKN049 04/04 A2940 RMK AO2 RAE28 SLP970 $
  • 281105Z AUTO 22010G21KT 9999 -RA SCT018 BKN023 BKN028 OVC036 06/06 A2938 RMK AO2 WSHFT 00 CIG 018V025 SLP962 $
  • 281056Z AUTO 19006KT 9999 -RA FEW011 BKN018 BKN024 OVC037 05/05 A2937 RMK AO2 RAB13 CIG 014V022 SLP958 P0002 T00540054 $
  • 281028Z AUTO 18007KT 9999 -RA FEW006 FEW010 BKN016 BKN021 OVC028 05/05 A2939 RMK AO2 RAB13 CIG 016V029 BKN016 V SCT SLP967 $
  • 281013Z AUTO 18008G14KT 9999 -RA SCT020 OVC028 06/06 A2940 RMK AO2 RAB13 SLP968 $
  • 280956Z AUTO 17009KT 9999 FEW015 OVC030 06/06 A2941 RMK AO2 RAE20 SLP972 P0001 T00550055 $
  • 280950Z AUTO 17011KT 9999 SCT017 OVC030 05/05 A2941 RMK AO2 RAE20 SLP974 $

TAF AMD TAF ETIC
Valid from the 28 at 11:00 until the 29 at 16:00 UTC


281110Z 2811/2916 18012KT 9999 VCSH FEW020 OVC040 620406 QNH2940INS
TEMPO 2811/2814 22025G35KT 5000 -SHRA VCTS SCT015 BKN020CB OVC040
BECMG 2821/2822 22012G20KT 9999 VCSH SCT015 OVC020 620206 510005 QNH2941INS
BECMG 2902/2903 24010G15KT 8000 -RASN BKN015 BKN030 620155 QNH2945INS TX06/2811Z TN00/2902Z



MET'MAP, your aeronautical weather chart ! - Copyright ORBIFLY December 2007 - Disclaimer

ORBIFLY MET'MAP TEAM :

Programming & Development : Alexandra Zaïnal
Concept & original design : Baudouin d'Aumeries
Assistance for programming : Marc-Olivier Méhu
Technical & hardware support : Manuel Goepfert

Contact : metmap@orbifly.com




SOURCES & CREDITS :

   NOAA